Time;durP1;ratioP1;P1;durP2;ratioP2;P2;SDS_P1;SDS_P2;PMS_P1;PMS_P2;Temp;Humidity;BMP_temperature;BMP_pressure;BME280_temperature;BME280_humidity;BME280_pressure;Samples;Min_cycle;Max_cycle;Signal;HPM_P1;HPM_P2
2022/05/05 00:01:52;;;;;;;10.90;8.77;;;;;;;11.09;100.00;100443.06;4903047;23;20059;-68
2022/05/05 00:04:22;;;;;;;12.85;8.90;;;;;;;11.27;100.00;100497.81;4281671;28;9999905;-69
2022/05/05 00:06:48;;;;;;;11.63;8.73;;;;;;;11.05;100.00;100502.53;4968039;28;20138;-68
2022/05/05 00:09:13;;;;;;;11.50;9.25;;;;;;;11.24;100.00;100482.63;4966449;28;20038;-68
2022/05/05 00:14:28;;;;;;;21.38;14.07;;;;;;;10.86;100.00;100431.75;4967718;28;20108;-68
2022/05/05 00:17:03;;;;;;;38.72;19.83;;;;;;;10.53;100.00;100381.63;4967967;28;20031;-68
2022/05/05 00:19:31;;;;;;;43.50;22.17;;;;;;;10.67;100.00;100440.63;4968012;28;20125;-69
2022/05/05 00:21:57;;;;;;;48.17;24.83;;;;;;;10.38;100.00;100439.53;4966740;28;20038;-68
2022/05/05 00:24:23;;;;;;;39.67;22.55;;;;;;;10.57;100.00;100441.69;4968080;28;20041;-68
2022/05/05 00:26:48;;;;;;;42.30;22.92;;;;;;;10.07;100.00;100440.09;4968104;28;20081;-69
2022/05/05 00:29:15;;;;;;;37.53;18.80;;;;;;;10.27;100.00;100473.63;4968291;28;20052;-68
2022/05/05 00:31:42;;;;;;;22.98;15.50;;;;;;;9.85;100.00;100437.13;4967800;28;20475;-67
2022/05/05 00:34:07;;;;;;;14.82;11.38;;;;;;;10.24;100.00;100471.16;4968125;28;20078;-69
2022/05/05 00:36:32;;;;;;;16.23;12.43;;;;;;;9.56;100.00;100375.88;4970854;28;20054;-67
2022/05/05 00:38:58;;;;;;;15.10;11.63;;;;;;;10.09;100.00;100467.16;4971174;28;20034;-68
2022/05/05 00:41:23;;;;;;;12.07;10.77;;;;;;;9.55;100.00;100397.88;4971607;28;20512;-68
2022/05/05 00:43:49;;;;;;;12.38;9.88;;;;;;;9.92;100.00;100403.16;4971619;28;20034;-68
2022/05/05 00:46:15;;;;;;;11.43;9.90;;;;;;;9.75;100.00;100404.28;4971182;28;20027;-68
2022/05/05 00:48:43;;;;;;;14.02;10.95;;;;;;;9.26;100.00;100400.06;4971707;28;20441;-68
2022/05/05 00:51:10;;;;;;;10.50;9.23;;;;;;;9.58;100.00;100390.22;4971096;28;20034;-68
2022/05/05 00:53:35;;;;;;;12.32;8.98;;;;;;;9.61;100.00;100460.38;4969971;28;20033;-68
2022/05/05 00:56:19;;;;;;;10.02;8.25;;;;;;;9.39;100.00;100428.59;4969956;28;20034;-68
2022/05/05 00:58:47;;;;;;;10.32;7.82;;;;;;;9.50;100.00;100429.28;4970756;28;20077;-68
2022/05/05 01:01:18;;;;;;;9.68;7.72;;;;;;;9.51;100.00;100416.56;4971028;28;20043;-68
2022/05/05 01:03:44;;;;;;;10.05;8.50;;;;;;;9.25;100.00;100410.25;4982640;28;20077;-68
2022/05/05 01:06:10;;;;;;;9.00;7.93;;;;;;;9.73;100.00;100461.88;4990681;28;20041;-68
2022/05/05 01:08:36;;;;;;;8.32;7.30;;;;;;;9.28;100.00;100433.84;4990702;28;20030;-67
2022/05/05 01:11:03;;;;;;;8.73;7.30;;;;;;;9.45;100.00;100426.78;4990554;28;20042;-68
2022/05/05 01:13:30;;;;;;;8.95;7.38;;;;;;;9.68;100.00;100471.28;4990342;28;20097;-68
2022/05/05 01:15:56;;;;;;;9.07;7.40;;;;;;;9.32;100.00;100416.88;4990169;28;20498;-68
2022/05/05 01:18:22;;;;;;;9.65;7.00;;;;;;;9.32;100.00;100405.03;4990525;28;20113;-71
2022/05/05 01:20:52;;;;;;;12.35;7.88;;;;;;;9.22;100.00;100454.25;4990366;28;20037;-68
2022/05/05 01:23:17;;;;;;;8.50;6.93;;;;;;;9.79;100.00;100467.69;4989936;28;20031;-68
2022/05/05 01:28:28;;;;;;;9.07;8.02;;;;;;;9.62;100.00;100490.00;4989760;28;20037;-68
2022/05/05 01:30:53;;;;;;;8.90;7.90;;;;;;;8.61;100.00;100398.50;4990208;28;20030;-68
2022/05/05 01:33:23;;;;;;;9.48;8.10;;;;;;;9.67;100.00;100498.34;4990200;28;20038;-68
2022/05/05 01:35:50;;;;;;;10.32;8.80;;;;;;;9.39;100.00;100507.25;4989937;28;20125;-68
2022/05/05 01:38:20;;;;;;;13.38;8.48;;;;;;;9.48;100.00;100487.66;4988506;28;20053;-67
2022/05/05 01:40:46;;;;;;;10.60;8.50;;;;;;;9.12;100.00;100492.44;4989818;28;20030;-68
2022/05/05 01:43:14;;;;;;;10.88;8.32;;;;;;;8.83;100.00;100466.63;4988633;28;20401;-69
2022/05/05 01:45:39;;;;;;;10.02;8.30;;;;;;;8.66;100.00;100431.34;4990075;28;20072;-70
2022/05/05 01:48:05;;;;;;;11.07;8.75;;;;;;;9.20;100.00;100480.47;4988761;28;20121;-68
2022/05/05 01:50:31;;;;;;;13.00;8.57;;;;;;;9.26;100.00;100429.66;4989294;28;20491;-68
2022/05/05 01:53:01;;;;;;;9.43;8.30;;;;;;;9.27;100.00;100482.91;4989633;28;20066;-68
2022/05/05 01:55:27;;;;;;;11.73;8.57;;;;;;;9.19;100.00;100448.38;4990069;28;20045;-68
2022/05/05 01:57:54;;;;;;;10.13;8.20;;;;;;;9.33;100.00;100477.72;4989957;28;20038;-68
2022/05/05 02:00:20;;;;;;;8.85;7.85;;;;;;;9.10;100.00;100509.38;4989789;28;20022;-69
2022/05/05 02:02:46;;;;;;;9.65;8.10;;;;;;;8.77;100.00;100496.25;4984800;28;20097;-69
2022/05/05 02:05:13;;;;;;;10.10;8.52;;;;;;;8.66;100.00;100498.09;4970169;28;20488;-68
2022/05/05 02:07:40;;;;;;;10.35;8.65;;;;;;;9.51;100.00;100496.91;4969493;28;20066;-68
2022/05/05 02:10:07;;;;;;;9.02;7.72;;;;;;;9.11;100.00;100451.00;4970180;28;20066;-69
2022/05/05 02:12:35;;;;;;;9.13;8.18;;;;;;;8.95;100.00;100438.59;4970089;28;20077;-67
2022/05/05 02:15:05;;;;;;;10.00;8.27;;;;;;;9.59;100.00;100510.31;4969916;28;20037;-67
2022/05/05 02:17:30;;;;;;;9.30;8.30;;;;;;;8.97;100.00;100442.78;4970316;28;20480;-67
2022/05/05 02:19:56;;;;;;;9.80;8.80;;;;;;;8.83;100.00;100454.81;4969925;28;20109;-68
2022/05/05 02:22:21;;;;;;;8.68;7.88;;;;;;;9.11;100.00;100414.69;4968631;28;20130;-68
2022/05/05 02:24:46;;;;;;;9.30;8.40;;;;;;;9.72;100.00;100521.97;4970055;28;20477;-67
2022/05/05 02:27:12;;;;;;;9.85;8.88;;;;;;;9.40;100.00;100511.47;4969141;28;20065;-67
2022/05/05 02:29:37;;;;;;;12.32;8.82;;;;;;;9.03;100.00;100462.13;4969692;28;20517;-67
2022/05/05 02:32:03;;;;;;;11.80;9.30;;;;;;;9.22;100.00;100478.75;4969845;28;20098;-67
2022/05/05 02:34:28;;;;;;;10.20;9.20;;;;;;;9.35;100.00;100525.91;4968371;28;20045;-67
2022/05/05 02:39:38;;;;;;;10.98;9.25;;;;;;;9.08;100.00;100516.16;4968811;28;20045;-67
2022/05/05 02:42:03;;;;;;;14.45;8.80;;;;;;;8.94;100.00;100437.72;4969499;28;20034;-67
2022/05/05 02:44:29;;;;;;;10.20;9.15;;;;;;;8.68;100.00;100450.75;4969306;28;20030;-68
2022/05/05 02:46:54;;;;;;;11.05;7.85;;;;;;;9.44;100.00;100526.66;4969088;28;20119;-68
2022/05/05 02:49:20;;;;;;;11.52;8.80;;;;;;;9.16;100.00;100514.34;4969252;28;20497;-68
2022/05/05 02:51:45;;;;;;;10.23;8.50;;;;;;;9.05;100.00;100447.75;4968802;28;20471;-68
2022/05/05 02:56:55;;;;;;;10.52;8.57;;;;;;;9.26;100.00;100510.84;4969315;28;20054;-68
2022/05/05 02:59:20;;;;;;;10.07;8.57;;;;;;;9.05;100.00;100476.44;4967556;28;20035;-67
2022/05/05 03:01:46;;;;;;;10.20;9.20;;;;;;;9.00;100.00;100462.16;4967445;28;20181;-68
2022/05/05 03:04:12;;;;;;;12.02;9.68;;;;;;;8.56;100.00;100526.09;4983986;28;20050;-68
2022/05/05 03:06:37;;;;;;;11.68;9.95;;;;;;;8.23;100.00;100468.16;4988314;28;20038;-70
2022/05/05 03:09:02;;;;;;;12.75;9.38;;;;;;;8.50;100.00;100466.19;4988710;28;20221;-70
2022/05/05 03:11:28;;;;;;;11.13;9.27;;;;;;;9.51;100.00;100513.00;4988052;28;20483;-70
2022/05/05 03:13:53;;;;;;;12.05;8.65;;;;;;;8.90;100.00;100461.44;4988524;28;20030;-67
2022/05/05 03:16:19;;;;;;;10.88;9.05;;;;;;;9.25;100.00;100520.13;4987778;28;20479;-68
2022/05/05 03:18:44;;;;;;;13.82;9.85;;;;;;;8.63;100.00;100494.75;4988176;28;20030;-67
2022/05/05 03:21:09;;;;;;;11.82;9.75;;;;;;;8.90;100.00;100471.59;4988237;28;20026;-70
2022/05/05 03:23:35;;;;;;;12.57;9.82;;;;;;;8.68;100.00;100448.22;4988293;28;20939;-70
2022/05/05 03:26:00;;;;;;;15.40;11.57;;;;;;;8.99;100.00;100478.25;4988167;28;20018;-70
2022/05/05 03:28:26;;;;;;;19.27;12.77;;;;;;;8.64;100.00;100458.41;4987770;28;20279;-69
2022/05/05 03:30:51;;;;;;;18.98;12.45;;;;;;;8.75;100.00;100490.38;4987787;28;20488;-69
2022/05/05 03:33:16;;;;;;;14.50;11.15;;;;;;;8.70;100.00;100540.28;4987602;28;20535;-69
2022/05/05 03:35:42;;;;;;;12.65;10.73;;;;;;;8.56;100.00;100481.31;4986729;28;20042;-70
2022/05/05 03:38:07;;;;;;;16.63;10.60;;;;;;;8.61;100.00;100540.41;4986638;28;20094;-70
2022/05/05 03:40:33;;;;;;;20.92;11.23;;;;;;;8.18;100.00;100450.47;4988030;28;20496;-70
2022/05/05 03:42:59;;;;;;;20.08;11.38;;;;;;;8.92;100.00;100491.84;4987784;28;20105;-70
2022/05/05 03:45:24;;;;;;;12.82;10.82;;;;;;;8.86;100.00;100535.03;4986430;28;20030;-68
2022/05/05 03:47:50;;;;;;;15.30;10.88;;;;;;;8.84;100.00;100542.66;4987685;28;20193;-68
2022/05/05 03:50:15;;;;;;;11.88;10.15;;;;;;;8.56;100.00;100506.66;4987358;28;20065;-68
2022/05/05 03:52:41;;;;;;;11.15;10.02;;;;;;;8.57;100.00;100490.63;4987389;28;20794;-67
2022/05/05 03:55:07;;;;;;;14.98;10.45;;;;;;;8.72;100.00;100502.25;4986515;28;20041;-68
2022/05/05 03:57:35;;;;;;;11.68;10.35;;;;;;;8.48;100.00;100493.22;4987711;28;20038;-68
2022/05/05 04:00:03;;;;;;;11.93;10.70;;;;;;;8.98;100.00;100530.66;4987216;28;20038;-67
2022/05/05 04:02:29;;;;;;;11.63;10.43;;;;;;;8.68;100.00;100515.81;4984883;28;20111;-70
2022/05/05 04:04:55;;;;;;;12.05;10.57;;;;;;;8.87;100.00;100504.59;4971888;28;20045;-68
2022/05/05 04:07:20;;;;;;;15.52;10.70;;;;;;;8.97;100.00;100561.09;4970264;28;20512;-68
2022/05/05 04:09:46;;;;;;;12.88;10.80;;;;;;;9.05;100.00;100547.47;4971780;28;20544;-68
2022/05/05 04:12:12;;;;;;;14.98;11.65;;;;;;;9.20;100.00;100500.78;4975663;28;20023;-70
2022/05/05 04:14:37;;;;;;;13.23;11.82;;;;;;;8.61;100.00;100512.53;4975718;28;20381;-68
2022/05/05 04:17:03;;;;;;;16.85;12.10;;;;;;;8.84;100.00;100504.63;4975388;28;20046;-68
2022/05/05 04:19:29;;;;;;;16.85;11.60;;;;;;;9.40;100.00;100560.53;4975699;28;20086;-70
2022/05/05 04:21:54;;;;;;;13.85;10.73;;;;;;;9.40;100.00;100541.94;4975578;28;20022;-67
2022/05/05 04:24:19;;;;;;;16.02;11.65;;;;;;;9.43;100.00;100559.63;4975417;28;20033;-67
2022/05/05 04:26:45;;;;;;;15.95;11.38;;;;;;;9.17;100.00;100476.28;4975275;28;20034;-67
2022/05/05 04:29:12;;;;;;;15.43;10.98;;;;;;;9.43;100.00;100473.34;4973825;28;20030;-68
2022/05/05 04:31:38;;;;;;;15.98;11.40;;;;;;;9.99;100.00;100566.41;4974071;28;20061;-67
2022/05/05 04:34:04;;;;;;;16.45;11.65;;;;;;;9.93;100.00;100580.03;4973670;28;20062;-69
2022/05/05 04:36:35;;;;;;;15.30;11.95;;;;;;;10.04;100.00;100526.53;4975678;28;20113;-70
2022/05/05 04:39:04;;;;;;;17.13;12.07;;;;;;;10.48;100.00;100563.91;4975187;28;20485;-70
2022/05/05 04:41:30;;;;;;;18.02;13.38;;;;;;;10.20;100.00;100561.84;4975442;28;20070;-70
2022/05/05 04:43:55;;;;;;;16.92;12.65;;;;;;;10.57;100.00;100579.81;4974766;28;20066;-70
2022/05/05 04:46:20;;;;;;;19.75;15.38;;;;;;;11.05;100.00;100586.50;4975042;28;20031;-70
2022/05/05 04:48:48;;;;;;;18.42;16.17;;;;;;;11.28;100.00;100589.44;4973816;28;20086;-70
2022/05/05 04:51:14;;;;;;;21.17;17.83;;;;;;;10.91;100.00;100526.59;4975056;28;20034;-69
2022/05/05 04:53:39;;;;;;;22.05;16.98;;;;;;;11.71;100.00;100589.34;4974755;28;20109;-70
2022/05/05 04:56:05;;;;;;;28.70;17.63;;;;;;;11.06;100.00;100539.00;4974809;28;20035;-70
2022/05/05 04:58:34;;;;;;;21.75;16.85;;;;;;;11.96;100.00;100553.94;4974530;28;20497;-69
2022/05/05 05:00:59;;;;;;;24.08;17.42;;;;;;;11.99;100.00;100576.78;4974622;28;20034;-70
2022/05/05 05:03:37;;;;;;;20.98;17.00;;;;;;;11.86;100.00;100538.06;4971600;28;20510;-69
2022/05/05 05:06:04;;;;;;;20.00;16.60;;;;;;;12.30;100.00;100531.00;4955221;28;20066;-70
2022/05/05 05:08:29;;;;;;;20.55;15.80;;;;;;;12.68;100.00;100561.41;4966119;28;20517;-70
2022/05/05 05:10:56;;;;;;;18.58;15.60;;;;;;;13.16;100.00;100595.81;4958351;28;20061;-69
2022/05/05 05:13:21;;;;;;;14.82;13.18;;;;;;;13.23;100.00;100587.09;4962490;28;20062;-69
2022/05/05 05:15:46;;;;;;;17.88;14.35;;;;;;;12.74;100.00;100543.38;4954882;29;20114;-70
2022/05/05 05:18:12;;;;;;;40.88;31.08;;;;;;;12.47;100.00;100551.78;4955292;29;20031;-70
2022/05/05 05:20:37;;;;;;;22.33;18.02;;;;;;;12.85;100.00;100533.72;4955367;28;20497;-69
2022/05/05 05:23:03;;;;;;;15.65;13.73;;;;;;;12.97;100.00;100535.94;4973029;28;20031;-70
2022/05/05 05:25:28;;;;;;;14.68;10.93;;;;;;;13.24;100.00;100563.22;4974335;28;20031;-69
2022/05/05 05:27:54;;;;;;;11.63;9.23;;;;;;;13.70;100.00;100590.78;4988877;28;20551;-70
2022/05/05 05:30:19;;;;;;;14.57;9.50;;;;;;;13.72;100.00;100550.69;4974032;28;20043;-70
2022/05/05 05:32:45;;;;;;;12.38;9.40;;;;;;;13.67;100.00;100535.50;4974026;28;20023;-68
2022/05/05 05:35:10;;;;;;;9.57;8.30;;;;;;;14.06;100.00;100563.22;4974245;28;20031;-70
2022/05/05 05:37:36;;;;;;;9.75;8.85;;;;;;;14.03;100.00;100576.09;4989209;28;20121;-68
2022/05/05 05:40:01;;;;;;;10.15;7.93;;;;;;;14.35;100.00;100604.88;4973651;28;20042;-69
2022/05/05 05:42:26;;;;;;;9.18;8.25;;;;;;;13.65;100.00;100567.94;4973636;28;20034;-71
2022/05/05 05:44:52;;;;;;;14.40;9.02;;;;;;;14.20;100.00;100528.63;4974224;28;20542;-70
2022/05/05 05:47:17;;;;;;;13.65;9.65;;;;;;;14.93;100.00;100611.41;4972868;28;20062;-69
2022/05/05 05:49:43;;;;;;;15.88;10.45;;;;;;;14.64;100.00;100617.53;4976469;28;20026;-68
2022/05/05 05:52:08;;;;;;;9.15;8.10;;;;;;;14.41;100.00;100620.03;4971649;28;20427;-68
2022/05/05 05:54:33;;;;;;;12.25;8.05;;;;;;;14.81;100.00;100618.66;4956550;28;20031;-67
2022/05/05 05:56:59;;;;;;;9.70;7.47;;;;;;;15.02;100.00;100564.13;4954469;28;20031;-67
2022/05/05 05:59:24;;;;;;;10.77;8.02;;;;;;;14.57;100.00;100577.69;4975708;28;20031;-70
2022/05/05 06:04:34;;;;;;;9.55;8.55;;;;;;;15.39;100.00;100613.94;4973365;28;20077;-69
2022/05/05 06:07:00;;;;;;;11.32;8.25;;;;;;;14.87;100.00;100551.88;4973346;28;20114;-66
2022/05/05 06:09:25;;;;;;;10.05;7.78;;;;;;;14.99;100.00;100562.53;4972965;28;20393;-69
2022/05/05 06:11:51;;;;;;;12.35;8.13;;;;;;;15.08;100.00;100599.75;4973181;28;20042;-67
2022/05/05 06:14:16;;;;;;;9.55;8.55;;;;;;;14.56;100.00;100636.56;4973051;28;20058;-68
2022/05/05 06:16:42;;;;;;;14.18;10.85;;;;;;;14.49;100.00;100563.47;4973256;28;20082;-68
2022/05/05 06:19:07;;;;;;;12.13;9.48;;;;;;;15.07;100.00;100603.22;4972828;28;20503;-66
2022/05/05 06:21:33;;;;;;;17.35;15.52;;;;;;;14.33;100.00;100573.41;4972911;28;20041;-65
2022/05/05 06:23:58;;;;;;;28.83;25.83;;;;;;;14.74;100.00;100574.53;4973113;28;20023;-68
2022/05/05 06:26:24;;;;;;;15.80;14.10;;;;;;;15.16;100.00;100590.91;4972362;28;20034;-65
2022/05/05 06:28:50;;;;;;;22.17;19.42;;;;;;;15.18;100.00;100529.38;4973253;28;20481;-67
2022/05/05 06:31:16;;;;;;;16.17;12.95;;;;;;;16.08;100.00;100577.06;4973471;28;20424;-66
2022/05/05 06:33:42;;;;;;;18.83;14.50;;;;;;;16.68;100.00;100616.50;4972778;28;20031;-70
2022/05/05 06:36:08;;;;;;;21.92;19.73;;;;;;;17.03;100.00;100614.09;4972835;28;20477;-66
2022/05/05 06:38:33;;;;;;;20.30;16.40;;;;;;;17.22;100.00;100596.94;4971617;28;20023;-69
2022/05/05 06:40:59;;;;;;;14.05;12.63;;;;;;;16.88;100.00;100619.88;4972159;28;20046;-66
2022/05/05 06:43:25;;;;;;;10.32;8.90;;;;;;;17.04;100.00;100626.00;4966950;28;20122;-67
2022/05/05 06:45:51;;;;;;;13.40;12.00;;;;;;;16.53;100.00;100622.28;4966819;28;20436;-66
2022/05/05 06:48:17;;;;;;;16.15;14.43;;;;;;;17.04;100.00;100594.34;4953304;29;20518;-66
2022/05/05 06:50:43;;;;;;;11.20;8.75;;;;;;;17.24;100.00;100592.56;4953026;28;20028;-66
2022/05/05 06:53:08;;;;;;;12.63;9.13;;;;;;;17.96;100.00;100613.19;4955509;28;20105;-65
2022/05/05 06:55:34;;;;;;;10.05;8.48;;;;;;;16.57;100.00;100588.72;4966410;28;20030;-64
2022/05/05 06:57:59;;;;;;;9.27;7.35;;;;;;;17.78;100.00;100629.50;4965943;28;20039;-65
2022/05/05 07:01:51;;;;;;;9.35;7.38;;;;;;;18.43;100.00;100632.34;4972268;28;20126;-67
2022/05/05 07:03:11;;;;;;;7.80;7.00;;;;;;;17.72;100.00;100611.78;4972148;28;20488;-67
2022/05/05 07:05:36;;;;;;;8.93;7.18;;;;;;;18.67;100.00;100614.81;4972183;28;20041;-69
2022/05/05 07:08:02;;;;;;;7.93;6.35;;;;;;;18.37;100.00;100627.47;4972498;28;20042;-67
2022/05/05 07:13:14;;;;;;;9.93;7.32;;;;;;;17.84;100.00;100611.22;4971918;28;20050;-67
2022/05/05 07:15:40;;;;;;;12.50;7.13;;;;;;;18.20;100.00;100589.66;4971896;28;20062;-68
2022/05/05 07:18:06;;;;;;;11.27;9.93;;;;;;;18.87;100.00;100553.63;4972059;28;20037;-69
2022/05/05 07:20:32;;;;;;;10.95;8.32;;;;;;;19.01;100.00;100633.59;4972274;28;20031;-69
2022/05/05 07:22:57;;;;;;;14.20;8.40;;;;;;;18.87;100.00;100609.47;4971996;28;20488;-69
2022/05/05 07:25:23;;;;;;;11.77;8.50;;;;;;;17.81;100.00;100589.03;4970443;28;20042;-69
2022/05/05 07:27:48;;;;;;;9.05;7.90;;;;;;;17.32;100.00;100646.19;4953061;29;20078;-68
2022/05/05 07:30:15;;;;;;;8.52;7.28;;;;;;;18.07;100.00;100637.50;4952626;28;20027;-69
2022/05/05 07:32:41;;;;;;;16.77;9.18;;;;;;;18.01;100.00;100636.97;4952552;28;20027;-68
2022/05/05 07:35:07;;;;;;;17.10;9.10;;;;;;;18.22;100.00;100606.78;4952808;28;20035;-69
2022/05/05 07:37:32;;;;;;;13.77;8.98;;;;;;;17.98;100.00;100625.09;4952313;28;20031;-68
2022/05/05 07:39:58;;;;;;;11.40;6.90;;;;;;;18.66;100.00;100651.81;4952801;28;20031;-66
2022/05/05 07:42:23;;;;;;;8.15;6.75;;;;;;;18.64;100.00;100610.66;4951433;28;20042;-69
2022/05/05 07:44:48;;;;;;;11.65;7.30;;;;;;;19.08;100.00;100647.00;4961558;28;20497;-67
2022/05/05 07:47:14;;;;;;;12.93;7.22;;;;;;;20.46;100.00;100646.22;4971507;28;20031;-64
2022/05/05 07:49:39;;;;;;;28.38;14.50;;;;;;;19.82;100.00;100653.34;4972388;28;20128;-65
2022/05/05 07:52:05;;;;;;;7.25;5.85;;;;;;;20.09;100.00;100595.00;4971783;28;20041;-64
2022/05/05 07:54:42;;;;;;;7.53;5.38;;;;;;;21.22;100.00;100646.88;4972129;28;20026;-65
2022/05/05 07:57:11;;;;;;;8.77;4.80;;;;;;;19.25;100.00;100604.88;4971751;28;20058;-64
2022/05/05 07:59:38;;;;;;;5.57;4.80;;;;;;;20.37;100.00;100651.09;4971730;28;20128;-65
2022/05/05 08:02:04;;;;;;;5.95;4.90;;;;;;;20.43;100.00;100599.91;4971401;28;20039;-65
2022/05/05 08:04:31;;;;;;;8.43;6.00;;;;;;;21.40;100.00;100659.53;4968418;28;20035;-66
2022/05/05 08:06:56;;;;;;;10.32;6.10;;;;;;;21.77;100.00;100606.25;4970348;28;20027;-67
2022/05/05 08:09:22;;;;;;;11.27;6.32;;;;;;;21.12;100.00;100641.44;4970881;28;20034;-67
2022/05/05 08:11:47;;;;;;;16.05;7.40;;;;;;;19.64;100.00;100644.03;4969368;28;20041;-67
2022/05/05 08:14:13;;;;;;;7.55;5.70;;;;;;;20.15;100.00;100623.06;4970574;28;20416;-67
2022/05/05 08:16:38;;;;;;;5.70;5.00;;;;;;;20.81;100.00;100643.34;4969186;28;20118;-66
2022/05/05 08:19:04;;;;;;;9.05;5.30;;;;;;;20.70;100.00;100668.06;4969894;28;20038;-68
2022/05/05 08:21:29;;;;;;;6.38;5.72;;;;;;;20.89;100.00;100623.03;4970838;28;20058;-66
2022/05/05 08:28:28;;;;;;;12.27;6.18;;;;;;;20.33;100.00;100654.78;4970939;28;20030;-66
2022/05/05 08:29:24;;;;;;;9.07;5.90;;;;;;;19.99;100.00;100609.34;4970641;28;20046;-67
2022/05/05 08:31:49;;;;;;;11.70;7.20;;;;;;;19.86;100.00;100640.19;4970683;28;20030;-67
2022/05/05 08:34:15;;;;;;;7.72;5.93;;;;;;;19.42;100.00;100633.19;4970710;28;20823;-66
2022/05/05 08:36:40;;;;;;;8.70;5.25;;;;;;;19.41;100.00;100629.78;4970370;28;20037;-67
2022/05/05 08:39:06;;;;;;;9.65;5.10;;;;;;;19.13;100.00;100673.41;4970497;28;20480;-67
2022/05/05 08:41:32;;;;;;;8.85;5.05;;;;;;;19.81;100.00;100631.03;4970407;28;20034;-67
2022/05/05 08:43:58;;;;;;;8.43;5.30;;;;;;;20.28;100.00;100667.13;4971215;28;20041;-66
2022/05/05 08:46:28;;;;;;;6.65;4.50;;;;;;;19.87;100.00;100638.44;4972144;28;20035;-67
2022/05/05 08:49:06;;;;;;;13.10;6.72;;;;;;;20.06;100.00;100670.06;4971486;28;20034;-67
2022/05/05 08:51:44;;;;;;;7.15;4.00;;;;;;;19.98;100.00;100681.72;4971351;28;20504;-67
2022/05/05 08:54:16;;;;;;;9.23;4.55;;;;;;;20.01;100.00;100619.56;4985624;28;20062;-67
2022/05/05 08:56:41;;;;;;;7.53;4.05;;;;;;;20.03;100.00;100649.56;4972939;28;20499;-67
2022/05/05 08:59:08;;;;;;;6.88;4.72;;;;;;;19.22;100.00;100592.97;4974683;28;20027;-67
2022/05/05 09:01:38;;;;;;;10.32;5.28;;;;;;;20.39;100.00;100639.75;4974520;28;20050;-68
2022/05/05 09:04:05;;;;;;;10.50;4.72;;;;;;;21.23;100.00;100659.75;4974909;28;20043;-68
2022/05/05 09:06:43;;;;;;;13.50;4.60;;;;;;;20.29;100.00;100620.56;4974564;28;20045;-67
2022/05/05 09:09:30;;;;;;;7.35;5.68;;;;;;;20.49;100.00;100661.56;4974799;28;20031;-68
2022/05/05 09:12:18;;;;;;;6.25;4.65;;;;;;;20.36;100.00;100677.88;4974456;28;20078;-66
2022/05/05 09:14:50;;;;;;;6.72;4.35;;;;;;;20.25;100.00;100669.88;4974316;28;20481;-67
2022/05/05 09:17:23;;;;;;;7.65;3.90;;;;;;;20.17;100.00;100654.78;4974503;28;20118;-67
2022/05/05 09:19:57;;;;;;;7.13;3.88;;;;;;;19.59;100.00;100630.56;4973184;28;20035;-65
2022/05/05 09:22:24;;;;;;;12.15;4.35;;;;;;;19.98;98.11;100605.13;4974072;28;20463;-64
2022/05/05 12:12:27;;;;;;;8.70;4.78;;;;;;;22.22;69.53;100644.75;5087852;27;20389;-69
2022/05/05 12:15:01;;;;;;;4.97;4.40;;;;;;;21.90;70.25;100684.03;5088290;28;20047;-67
2022/05/05 12:17:46;;;;;;;5.03;4.07;;;;;;;21.85;69.63;100686.91;5087842;28;20107;-67
2022/05/05 12:20:14;;;;;;;4.80;3.95;;;;;;;20.69;69.56;100627.66;5086140;28;20536;-68
2022/05/05 12:22:42;;;;;;;5.93;4.80;;;;;;;21.23;70.13;100684.78;5087957;28;20047;-67
2022/05/05 12:25:27;;;;;;;6.15;4.40;;;;;;;21.81;68.79;100659.56;5088067;28;20090;-68
2022/05/05 12:27:55;;;;;;;6.90;4.35;;;;;;;21.28;68.69;100688.75;5085994;28;20020;-69
2022/05/05 12:30:39;;;;;;;4.53;4.10;;;;;;;21.78;67.47;100685.63;5073729;28;20044;-68
2022/05/05 12:33:06;;;;;;;4.70;3.63;;;;;;;23.05;65.23;100670.31;5067352;28;20126;-68
2022/05/05 12:35:36;;;;;;;4.30;3.92;;;;;;;23.08;63.61;100684.81;5078425;28;20024;-67
2022/05/05 12:38:04;;;;;;;4.78;3.95;;;;;;;22.72;65.13;100630.25;5085974;28;20040;-67
2022/05/05 12:40:29;;;;;;;7.15;4.00;;;;;;;23.15;63.79;100668.75;5086026;28;20040;-68
2022/05/05 12:43:08;;;;;;;5.32;3.80;;;;;;;23.04;64.36;100676.41;5087669;28;20086;-68
2022/05/05 12:45:35;;;;;;;4.32;3.80;;;;;;;22.87;63.97;100681.91;5086278;28;20032;-68
2022/05/05 12:48:03;;;;;;;6.22;4.50;;;;;;;22.64;61.37;100661.88;5087910;28;20047;-69
2022/05/05 12:50:43;;;;;;;7.07;3.70;;;;;;;23.25;60.82;100627.41;5080163;28;20029;-72
2022/05/05 13:01:52;;;;;;;6.72;3.97;;;;;;;21.71;66.34;100629.94;5087116;28;20495;-67
2022/05/05 13:04:19;;;;;;;4.90;4.15;;;;;;;21.18;69.86;100620.38;5086911;28;20449;-66
2022/05/05 13:06:48;;;;;;;9.68;4.40;;;;;;;21.19;76.79;100609.13;5087433;28;20500;-67
2022/05/05 13:09:14;;;;;;;5.47;4.28;;;;;;;21.09;80.92;100645.97;5087422;28;20037;-67
2022/05/05 13:11:41;;;;;;;14.52;5.50;;;;;;;20.78;100.00;100633.19;5086831;28;20106;-67
2022/05/05 13:14:07;;;;;;;6.20;5.22;;;;;;;20.19;100.00;100622.00;5086407;28;20043;-65
2022/05/05 13:16:35;;;;;;;6.00;5.40;;;;;;;20.48;100.00;100633.25;5084232;28;20047;-67
2022/05/05 13:19:02;;;;;;;7.07;5.57;;;;;;;20.69;100.00;100632.81;5086342;28;20028;-66
2022/05/05 13:21:28;;;;;;;7.90;4.82;;;;;;;21.04;100.00;100620.38;5086847;28;20029;-66
2022/05/05 13:23:54;;;;;;;8.45;4.90;;;;;;;21.24;100.00;100651.03;5072853;28;20077;-66
2022/05/05 13:26:20;;;;;;;8.52;5.07;;;;;;;20.68;100.00;100679.41;5071596;28;20387;-67
2022/05/05 13:28:45;;;;;;;5.93;4.65;;;;;;;20.74;100.00;100676.47;5073340;28;20089;-67
2022/05/05 13:31:11;;;;;;;7.07;4.90;;;;;;;20.81;100.00;100645.91;5073156;28;20040;-68
2022/05/05 13:33:36;;;;;;;5.72;4.50;;;;;;;20.74;100.00;100669.53;5071210;28;20764;-66
2022/05/05 13:36:02;;;;;;;7.53;5.10;;;;;;;21.07;100.00;100666.75;5073028;28;20025;-66
2022/05/05 13:38:28;;;;;;;6.05;5.18;;;;;;;20.84;100.00;100631.06;5072673;28;20421;-66
2022/05/05 13:40:56;;;;;;;6.28;4.97;;;;;;;20.16;100.00;100629.91;5072586;28;20028;-66
2022/05/05 13:43:21;;;;;;;6.80;4.70;;;;;;;20.22;100.00;100636.50;5061988;28;20036;-66
2022/05/05 13:45:47;;;;;;;5.60;4.50;;;;;;;20.17;100.00;100672.88;5052910;28;20041;-66
2022/05/05 13:48:13;;;;;;;5.97;4.55;;;;;;;20.10;100.00;100663.81;5052474;28;20064;-66
2022/05/05 13:50:38;;;;;;;4.63;4.22;;;;;;;20.02;100.00;100671.16;5062598;28;20036;-66
2022/05/05 13:53:04;;;;;;;4.60;4.20;;;;;;;20.23;100.00;100664.81;5072580;28;20514;-66
2022/05/05 13:55:29;;;;;;;6.03;4.60;;;;;;;20.45;100.00;100673.00;5072666;28;20133;-66
2022/05/05 13:57:59;;;;;;;5.00;4.50;;;;;;;20.25;100.00;100672.47;5073335;28;20031;-66
2022/05/05 14:00:24;;;;;;;6.10;4.90;;;;;;;20.02;100.00;100666.00;5071591;28;20064;-66
2022/05/05 14:02:50;;;;;;;4.38;3.92;;;;;;;19.80;100.00;100631.94;5071233;28;20568;-66
2022/05/05 14:05:16;;;;;;;4.85;4.28;;;;;;;20.21;100.00;100633.06;5073034;28;20033;-66
2022/05/05 14:13:09;;;;;;;5.30;4.38;;;;;;;20.18;100.00;100648.72;5072022;28;20552;-67
2022/05/05 14:15:34;;;;;;;5.40;3.88;;;;;;;19.74;99.91;100599.59;5071341;28;20123;-67
2022/05/05 14:18:00;;;;;;;5.68;4.13;;;;;;;20.43;100.00;100672.25;5072605;28;20024;-70
2022/05/05 14:20:27;;;;;;;5.50;4.00;;;;;;;20.09;100.00;100607.91;5072349;28;20085;-67
2022/05/05 14:22:53;;;;;;;4.70;4.20;;;;;;;20.41;100.00;100652.59;5072279;28;20029;-67
2022/05/05 14:25:19;;;;;;;5.95;4.45;;;;;;;20.29;100.00;100645.53;5072289;28;20040;-68
2022/05/05 14:27:45;;;;;;;6.22;4.07;;;;;;;20.77;96.88;100663.38;5071500;28;20479;-68
2022/05/05 14:30:10;;;;;;;5.15;4.20;;;;;;;20.65;98.78;100656.34;5064716;28;20047;-67
2022/05/05 14:32:36;;;;;;;5.07;4.03;;;;;;;20.39;94.00;100655.28;5071903;28;20107;-67
2022/05/05 14:35:03;;;;;;;5.40;4.20;;;;;;;20.58;90.23;100673.94;5070803;28;20121;-68